createdAt,value
2023-02-25T00:00:31.290Z,9.04
2023-02-25T00:02:59.999Z,9.04
2023-02-25T00:05:27.232Z,9.05
2023-02-25T00:07:54.360Z,9.03
2023-02-25T00:10:21.647Z,9.00
2023-02-25T00:12:48.356Z,8.97
2023-02-25T00:15:15.018Z,8.96
2023-02-25T00:17:42.133Z,8.96
2023-02-25T00:20:16.985Z,8.92
2023-02-25T00:22:43.836Z,8.90
2023-02-25T00:25:10.569Z,8.89
2023-02-25T00:27:37.588Z,8.89
2023-02-25T00:30:05.675Z,8.88
2023-02-25T00:32:32.597Z,8.87
2023-02-25T00:34:59.511Z,8.85
2023-02-25T00:37:26.406Z,8.81
2023-02-25T00:39:53.125Z,8.78
2023-02-25T00:42:20.269Z,8.77
2023-02-25T00:44:48.702Z,8.77
2023-02-25T00:47:19.429Z,8.77
2023-02-25T00:49:49.495Z,8.75
2023-02-25T00:52:16.629Z,8.75
2023-02-25T00:54:43.411Z,8.75
2023-02-25T00:57:10.381Z,8.73
2023-02-25T00:59:37.127Z,8.72
2023-02-25T01:02:04.473Z,8.71
2023-02-25T01:04:31.276Z,8.72
2023-02-25T01:06:59.035Z,8.71
2023-02-25T01:09:26.242Z,8.69
2023-02-25T01:11:53.308Z,8.62
2023-02-25T01:14:23.256Z,8.62
2023-02-25T01:16:51.239Z,8.65
2023-02-25T01:19:23.494Z,8.64
2023-02-25T01:21:53.373Z,8.61
2023-02-25T01:24:31.014Z,8.61
2023-02-25T01:27:06.734Z,8.60
2023-02-25T01:29:39.309Z,8.59
2023-02-25T01:32:09.189Z,8.59
2023-02-25T01:34:36.075Z,8.58
2023-02-25T01:37:04.254Z,8.58
2023-02-25T01:39:32.401Z,8.56
2023-02-25T01:42:02.198Z,8.56
2023-02-25T01:44:34.268Z,8.55
2023-02-25T01:47:01.559Z,8.55
2023-02-25T01:49:33.068Z,8.55
2023-02-25T01:52:22.276Z,8.54
2023-02-25T01:54:54.197Z,8.53
2023-02-25T01:57:21.354Z,8.51
2023-02-25T01:59:49.405Z,8.51
2023-02-25T02:02:19.485Z,8.51
2023-02-25T02:04:50.591Z,8.50
2023-02-25T02:07:21.444Z,8.48
2023-02-25T02:09:57.393Z,8.44
2023-02-25T02:12:26.769Z,8.44
2023-02-25T02:14:53.988Z,8.42
2023-02-25T02:17:30.036Z,8.39
2023-02-25T02:20:23.254Z,8.38
2023-02-25T02:23:22.234Z,8.36
2023-02-25T02:26:08.698Z,8.36
2023-02-25T02:29:20.150Z,8.32
2023-02-25T02:31:52.858Z,8.30
2023-02-25T02:34:47.184Z,8.29
2023-02-25T02:37:24.766Z,8.26
2023-02-25T02:39:53.652Z,8.26
2023-02-25T02:43:00.340Z,8.23
2023-02-25T02:46:08.790Z,8.22
2023-02-25T02:48:51.733Z,8.20
2023-02-25T02:51:42.835Z,8.19
2023-02-25T02:54:11.677Z,8.20
2023-02-25T02:56:40.858Z,8.20
2023-02-25T02:59:33.408Z,8.19
2023-02-25T03:02:06.637Z,8.18
2023-02-25T03:04:37.646Z,8.17
2023-02-25T03:07:08.297Z,8.16
2023-02-25T03:09:41.073Z,8.13
2023-02-25T03:12:07.956Z,8.12
2023-02-25T03:14:37.195Z,8.12
2023-02-25T03:17:19.963Z,8.12
2023-02-25T03:19:51.363Z,8.11
2023-02-25T03:22:27.819Z,8.11
2023-02-25T03:25:14.850Z,8.09
2023-02-25T03:27:46.762Z,8.09
2023-02-25T03:30:29.798Z,8.09
2023-02-25T03:33:01.924Z,8.09
2023-02-25T03:35:30.589Z,8.09
2023-02-25T03:38:07.539Z,8.09
2023-02-25T03:40:36.920Z,8.08
2023-02-25T03:43:30.732Z,8.08
2023-02-25T03:45:59.527Z,8.06
2023-02-25T03:48:27.665Z,8.06
2023-02-25T03:50:59.451Z,8.04
2023-02-25T03:53:28.086Z,8.04
2023-02-25T03:56:08.489Z,8.04
2023-02-25T03:58:38.758Z,8.02
2023-02-25T04:01:09.845Z,8.01
2023-02-25T04:03:36.729Z,7.99
2023-02-25T04:06:04.029Z,7.99
2023-02-25T04:08:30.854Z,7.97
2023-02-25T04:10:57.560Z,7.97
2023-02-25T04:13:24.403Z,7.96
2023-02-25T04:15:51.419Z,7.94
2023-02-25T04:18:19.907Z,7.94
2023-02-25T04:20:46.629Z,7.93
2023-02-25T04:23:14.767Z,7.92
2023-02-25T04:25:41.606Z,7.91
2023-02-25T04:28:08.416Z,7.88
2023-02-25T04:30:35.324Z,7.87
2023-02-25T04:33:02.186Z,7.87
2023-02-25T04:35:28.867Z,7.86
2023-02-25T04:37:55.721Z,7.83
2023-02-25T04:40:24.018Z,7.83
2023-02-25T04:42:51.153Z,7.82
2023-02-25T04:45:18.209Z,7.82
2023-02-25T04:47:45.079Z,7.79
2023-02-25T04:50:12.462Z,7.78
2023-02-25T04:52:39.697Z,7.77
2023-02-25T04:55:07.028Z,7.78
2023-02-25T04:57:33.781Z,7.76
2023-02-25T05:00:00.502Z,7.75
2023-02-25T05:02:27.244Z,7.74
2023-02-25T05:04:53.957Z,7.73
2023-02-25T05:07:20.699Z,7.73
2023-02-25T05:09:47.351Z,7.72
2023-02-25T05:12:14.753Z,7.72
2023-02-25T05:14:41.610Z,7.71
2023-02-25T05:17:08.400Z,7.71
2023-02-25T05:19:35.077Z,7.71
2023-02-25T05:22:01.817Z,7.70
2023-02-25T05:24:28.528Z,7.70
2023-02-25T05:26:55.316Z,7.69
2023-02-25T05:29:22.117Z,7.69
2023-02-25T05:31:51.789Z,7.68
2023-02-25T05:34:18.842Z,7.68
2023-02-25T05:36:46.861Z,7.67
2023-02-25T05:39:14.550Z,7.67
2023-02-25T05:41:41.438Z,7.65
2023-02-25T05:44:09.850Z,7.62
2023-02-25T05:46:36.594Z,7.63
2023-02-25T05:49:03.581Z,7.61
2023-02-25T05:51:30.347Z,7.59
2023-02-25T05:53:57.535Z,7.58
2023-02-25T05:56:26.247Z,7.57
2023-02-25T05:58:54.465Z,7.55
2023-02-25T06:01:24.983Z,7.54
2023-02-25T06:03:52.521Z,7.54
2023-02-25T06:06:24.796Z,7.51
2023-02-25T06:08:51.966Z,7.49
2023-02-25T06:11:24.603Z,7.47
2023-02-25T06:13:53.078Z,7.45
2023-02-25T06:16:20.196Z,7.44
2023-02-25T06:18:48.083Z,7.42
2023-02-25T06:21:15.631Z,7.40
2023-02-25T06:23:44.131Z,7.40
2023-02-25T06:26:12.976Z,7.38
2023-02-25T06:28:39.977Z,7.35
2023-02-25T06:31:11.077Z,7.35
2023-02-25T06:33:39.466Z,7.33
2023-02-25T06:36:07.369Z,7.32
2023-02-25T06:38:34.997Z,7.31
2023-02-25T06:41:23.833Z,7.30
2023-02-25T06:43:52.334Z,7.29
2023-02-25T06:46:25.106Z,7.28
2023-02-25T06:48:52.691Z,7.19
2023-02-25T06:51:19.399Z,6.47
2023-02-25T06:53:47.483Z,5.91
2023-02-25T06:56:15.511Z,5.65
2023-02-25T06:58:42.877Z,5.40
2023-02-25T07:01:12.011Z,5.21
2023-02-25T07:03:39.323Z,4.98
2023-02-25T07:06:06.656Z,4.86
2023-02-25T07:08:33.628Z,4.89
2023-02-25T07:11:18.661Z,5.02
2023-02-25T07:13:49.770Z,5.10
2023-02-25T07:16:17.307Z,5.10
2023-02-25T07:18:44.709Z,5.19
2023-02-25T07:21:14.834Z,5.28
2023-02-25T07:23:42.672Z,5.29
2023-02-25T07:26:11.344Z,5.22
2023-02-25T07:28:38.422Z,5.19
2023-02-25T07:31:14.605Z,5.18
2023-02-25T07:33:41.967Z,5.09
2023-02-25T07:36:09.762Z,5.14
2023-02-25T07:38:37.578Z,5.08
2023-02-25T07:41:09.119Z,5.04
2023-02-25T07:43:36.160Z,4.99
2023-02-25T07:46:03.078Z,4.98
2023-02-25T07:48:30.337Z,5.03
2023-02-25T07:50:57.416Z,4.98
2023-02-25T07:53:24.531Z,5.07
2023-02-25T07:55:51.274Z,5.30
2023-02-25T07:58:18.054Z,5.47
2023-02-25T08:00:46.303Z,5.58
2023-02-25T08:03:13.187Z,5.61
2023-02-25T08:05:39.936Z,5.70
2023-02-25T08:08:06.919Z,5.97
2023-02-25T08:10:34.125Z,6.18
2023-02-25T08:13:01.011Z,6.19
2023-02-25T08:15:28.050Z,6.23
2023-02-25T08:17:55.984Z,6.12
2023-02-25T08:20:22.977Z,6.03
2023-02-25T08:22:49.868Z,5.82
2023-02-25T08:25:16.842Z,5.71
2023-02-25T08:27:44.373Z,5.67
2023-02-25T08:30:11.804Z,5.61
2023-02-25T08:32:38.819Z,5.59
2023-02-25T08:35:05.978Z,5.59
2023-02-25T08:37:33.485Z,5.61
2023-02-25T08:40:00.433Z,5.75
2023-02-25T08:42:27.704Z,5.86
2023-02-25T08:44:54.466Z,5.94
2023-02-25T08:47:21.390Z,6.18
2023-02-25T08:49:48.451Z,6.40
2023-02-25T08:52:15.303Z,6.66
2023-02-25T08:54:42.095Z,6.76
2023-02-25T08:57:09.064Z,6.64
2023-02-25T08:59:38.642Z,6.51
2023-02-25T09:02:09.457Z,6.32
2023-02-25T09:04:36.283Z,6.34
2023-02-25T09:07:03.527Z,6.18
2023-02-25T09:09:51.710Z,6.30
2023-02-25T09:12:19.033Z,6.38
2023-02-25T09:14:45.927Z,6.44
2023-02-25T09:17:12.877Z,6.30
2023-02-25T09:19:39.597Z,6.26
2023-02-25T09:22:07.306Z,6.17
2023-02-25T09:24:34.299Z,6.12
2023-02-25T09:27:07.691Z,6.03
2023-02-25T09:29:35.524Z,6.06
2023-02-25T09:32:02.552Z,6.06
2023-02-25T09:34:30.433Z,6.15
2023-02-25T09:36:57.595Z,6.20
2023-02-25T09:39:24.450Z,6.15
2023-02-25T09:42:11.203Z,6.18
2023-02-25T09:44:44.822Z,6.25
2023-02-25T09:47:16.378Z,6.30
2023-02-25T09:49:50.180Z,6.26
2023-02-25T09:52:19.702Z,6.30
2023-02-25T09:54:48.223Z,6.46
2023-02-25T09:57:21.797Z,6.57
2023-02-25T09:59:52.153Z,6.81
2023-02-25T10:02:27.749Z,6.95
2023-02-25T10:05:14.869Z,6.92
2023-02-25T10:08:14.005Z,6.76
2023-02-25T10:10:48.040Z,6.62
2023-02-25T10:13:36.217Z,6.60
2023-02-25T10:16:15.110Z,6.69
2023-02-25T10:19:08.251Z,6.62
2023-02-25T10:22:00.882Z,6.60
2023-02-25T10:24:39.173Z,6.71
2023-02-25T10:27:30.284Z,6.78
2023-02-25T10:30:36.366Z,6.92
2023-02-25T10:33:16.058Z,6.72
2023-02-25T10:35:44.663Z,6.51
2023-02-25T10:38:12.868Z,6.36
2023-02-25T10:40:41.045Z,6.43
2023-02-25T10:43:20.256Z,6.49
2023-02-25T10:45:50.097Z,6.53
2023-02-25T10:48:22.475Z,6.51
2023-02-25T10:51:21.664Z,6.63
2023-02-25T10:53:57.554Z,6.67
2023-02-25T10:56:38.361Z,6.50
2023-02-25T10:59:06.582Z,6.49
2023-02-25T11:01:42.907Z,6.50
2023-02-25T11:04:15.936Z,6.61
2023-02-25T11:06:43.519Z,6.71
2023-02-25T11:09:32.933Z,6.66
2023-02-25T11:12:11.730Z,6.81
2023-02-25T11:14:39.704Z,7.00
2023-02-25T11:17:13.234Z,7.05
2023-02-25T11:19:43.101Z,7.07
2023-02-25T11:22:24.606Z,6.91
2023-02-25T11:24:59.785Z,6.62
2023-02-25T11:27:40.411Z,6.54
2023-02-25T11:30:23.336Z,6.60
2023-02-25T11:32:54.600Z,6.75
2023-02-25T11:35:30.128Z,6.76
2023-02-25T11:38:06.014Z,6.56
2023-02-25T11:40:44.216Z,6.40
2023-02-25T11:46:05.305Z,6.08
2023-02-25T11:49:13.632Z,5.83
2023-02-25T11:51:54.860Z,5.62
2023-02-25T11:54:45.477Z,5.49
2023-02-25T11:57:27.475Z,5.42
2023-02-25T12:00:25.760Z,5.44
2023-02-25T12:03:15.865Z,5.42
2023-02-25T12:06:13.208Z,5.47
2023-02-25T12:09:28.504Z,5.57
2023-02-25T12:12:06.400Z,5.72
2023-02-25T12:15:03.755Z,5.77
2023-02-25T12:17:55.349Z,5.78
2023-02-25T12:20:31.223Z,5.80
2023-02-25T12:23:25.020Z,5.92
2023-02-25T12:26:03.754Z,6.21
2023-02-25T12:28:49.752Z,6.44
2023-02-25T12:31:54.650Z,6.50
2023-02-25T12:34:40.142Z,6.77
2023-02-25T12:37:22.589Z,6.71
2023-02-25T12:39:55.461Z,6.38
2023-02-25T12:42:43.722Z,6.07
2023-02-25T12:45:16.838Z,5.84
2023-02-25T12:48:13.379Z,5.99
2023-02-25T12:51:11.464Z,6.31
2023-02-25T12:54:15.768Z,6.63
2023-02-25T12:57:20.684Z,6.89
2023-02-25T13:00:09.796Z,6.81
2023-02-25T13:03:15.607Z,6.52
2023-02-25T13:05:42.982Z,6.30
2023-02-25T13:08:22.268Z,6.18
2023-02-25T13:11:28.127Z,5.95
2023-02-25T13:14:14.792Z,5.98
2023-02-25T13:16:55.544Z,5.78
2023-02-25T13:19:42.960Z,5.73
2023-02-25T13:22:29.049Z,5.70
2023-02-25T13:25:13.612Z,5.65
2023-02-25T13:28:02.541Z,5.70
2023-02-25T13:31:00.701Z,5.71
2023-02-25T13:33:38.160Z,5.77
2023-02-25T13:36:30.657Z,5.81
2023-02-25T13:39:25.348Z,5.89
2023-02-25T13:42:12.507Z,5.65
2023-02-25T13:44:55.800Z,5.53
2023-02-25T13:47:33.420Z,5.64
2023-02-25T13:50:14.922Z,5.90
2023-02-25T13:53:00.258Z,6.10
2023-02-25T13:55:57.800Z,6.40
2023-02-25T13:58:55.248Z,6.74
2023-02-25T14:01:40.456Z,7.02
2023-02-25T14:04:29.992Z,7.12
2023-02-25T14:07:19.315Z,7.16
2023-02-25T14:10:28.057Z,7.13
2023-02-25T14:13:21.065Z,6.72
2023-02-25T14:16:00.031Z,6.45
2023-02-25T14:18:44.702Z,6.16
2023-02-25T14:21:17.320Z,6.03
2023-02-25T14:23:44.556Z,5.98
2023-02-25T14:26:16.998Z,6.03
2023-02-25T14:29:00.809Z,6.08
2023-02-25T14:31:53.767Z,6.30
2023-02-25T14:34:35.819Z,6.43
2023-02-25T14:37:22.794Z,6.15
2023-02-25T14:40:18.177Z,5.89
2023-02-25T14:43:35.433Z,5.75
2023-02-25T14:46:31.143Z,5.78
2023-02-25T14:49:09.873Z,5.89
2023-02-25T14:52:04.130Z,5.94
2023-02-25T14:55:07.974Z,5.91
2023-02-25T14:58:03.267Z,5.96
2023-02-25T15:00:31.184Z,5.92
2023-02-25T15:03:06.804Z,5.78
2023-02-25T15:06:11.072Z,5.55
2023-02-25T15:08:59.241Z,5.30
2023-02-25T15:11:54.461Z,5.06
2023-02-25T15:14:42.615Z,4.90
2023-02-25T15:17:27.404Z,5.22
2023-02-25T15:20:19.349Z,5.44
2023-02-25T15:22:55.585Z,5.84
2023-02-25T15:25:23.692Z,6.19
2023-02-25T15:27:52.360Z,6.30
2023-02-25T15:30:22.283Z,6.45
2023-02-25T15:33:07.838Z,6.55
2023-02-25T15:35:34.660Z,6.67
2023-02-25T15:38:02.279Z,6.69
2023-02-25T15:40:31.857Z,6.93
2023-02-25T15:43:20.028Z,7.16
2023-02-25T15:46:06.945Z,7.15
2023-02-25T15:48:35.819Z,6.82
2023-02-25T15:51:04.300Z,6.55
2023-02-25T15:53:41.184Z,6.19
2023-02-25T15:56:08.538Z,5.83
2023-02-25T15:58:35.227Z,5.60
2023-02-25T16:01:23.148Z,5.35
2023-02-25T16:03:50.358Z,5.32
2023-02-25T16:06:33.380Z,5.22
2023-02-25T16:09:09.159Z,5.24
2023-02-25T16:11:44.652Z,5.29
2023-02-25T16:14:31.917Z,5.29
2023-02-25T16:17:40.204Z,5.31
2023-02-25T16:20:13.476Z,5.28
2023-02-25T16:22:45.287Z,5.17
2023-02-25T16:25:15.940Z,5.09
2023-02-25T16:27:45.601Z,5.00
2023-02-25T16:30:21.184Z,4.84
2023-02-25T16:32:54.816Z,4.70
2023-02-25T16:35:38.540Z,4.58
2023-02-25T16:38:05.267Z,4.37
2023-02-25T16:40:36.066Z,4.25
2023-02-25T16:43:03.227Z,4.18
2023-02-25T16:45:33.607Z,4.16
2023-02-25T16:48:07.165Z,4.06
2023-02-25T16:50:35.329Z,3.78
2023-02-25T16:53:03.431Z,3.52
2023-02-25T16:55:36.675Z,3.37
2023-02-25T16:58:18.518Z,3.29
2023-02-25T17:01:12.223Z,3.26
2023-02-25T17:03:45.568Z,3.23
2023-02-25T17:06:19.145Z,3.13
2023-02-25T17:08:48.352Z,3.08
2023-02-25T17:11:23.418Z,3.17
2023-02-25T17:13:52.313Z,3.33
2023-02-25T17:16:23.953Z,3.48
2023-02-25T17:18:54.840Z,3.57
2023-02-25T17:21:30.347Z,3.50
2023-02-25T17:23:57.872Z,3.58
2023-02-25T17:26:25.367Z,3.89
2023-02-25T17:28:52.802Z,4.18
2023-02-25T17:31:26.878Z,4.40
2023-02-25T17:34:00.584Z,4.58
2023-02-25T17:36:34.915Z,4.75
2023-02-25T17:39:02.859Z,4.87
2023-02-25T17:41:29.539Z,4.97
2023-02-25T17:43:56.275Z,5.09
2023-02-25T17:46:29.146Z,5.17
2023-02-25T17:48:57.303Z,5.24
2023-02-25T17:51:35.895Z,5.30
2023-02-25T17:54:05.619Z,5.36
2023-02-25T17:56:36.682Z,5.42
2023-02-25T17:59:08.598Z,5.47
2023-02-25T18:01:55.620Z,5.50
2023-02-25T18:04:25.232Z,5.55
2023-02-25T18:06:55.610Z,5.59
2023-02-25T18:09:33.804Z,5.62
2023-02-25T18:12:09.447Z,5.65
2023-02-25T18:14:46.723Z,5.68
2023-02-25T18:17:21.260Z,5.70
2023-02-25T18:19:47.951Z,5.72
2023-02-25T18:22:27.001Z,5.74
2023-02-25T18:24:54.593Z,5.76
2023-02-25T18:27:27.597Z,5.78
2023-02-25T18:29:57.573Z,5.79
2023-02-25T18:32:24.507Z,5.83
2023-02-25T18:34:51.371Z,5.84
2023-02-25T18:37:19.004Z,5.85
2023-02-25T18:39:49.911Z,5.88
2023-02-25T18:42:18.283Z,5.89
2023-02-25T18:44:46.460Z,5.89
2023-02-25T18:47:20.829Z,5.90
2023-02-25T18:49:56.602Z,5.91
2023-02-25T18:52:39.072Z,5.92
2023-02-25T18:55:12.501Z,5.93
2023-02-25T18:57:49.137Z,5.94
2023-02-25T19:00:24.034Z,5.95
2023-02-25T19:03:09.461Z,5.96
2023-02-25T19:05:47.444Z,5.97
2023-02-25T19:08:16.649Z,5.98
2023-02-25T19:10:44.575Z,5.99
2023-02-25T19:13:29.142Z,6.00
2023-02-25T19:15:58.745Z,6.01
2023-02-25T19:18:30.724Z,6.00
2023-02-25T19:21:03.341Z,6.00
2023-02-25T19:23:43.045Z,6.01
2023-02-25T19:26:13.926Z,6.00
2023-02-25T19:28:52.727Z,6.00
2023-02-25T19:31:20.777Z,6.03
2023-02-25T19:33:47.477Z,6.03
2023-02-25T19:36:14.327Z,6.02
2023-02-25T19:38:41.015Z,6.02
2023-02-25T19:41:07.756Z,6.03
2023-02-25T19:43:42.969Z,6.02
2023-02-25T19:46:11.256Z,6.01
2023-02-25T19:48:53.701Z,5.97
2023-02-25T19:51:40.088Z,5.92
2023-02-25T19:54:06.873Z,5.94
2023-02-25T19:56:33.574Z,5.85
2023-02-25T19:59:00.414Z,5.86
2023-02-25T20:01:27.807Z,5.90
2023-02-25T20:03:55.246Z,5.93
2023-02-25T20:06:23.683Z,5.94
2023-02-25T20:08:53.141Z,5.93
2023-02-25T20:11:20.077Z,5.87
2023-02-25T20:13:47.121Z,5.83
2023-02-25T20:16:13.951Z,5.83
2023-02-25T20:18:40.928Z,5.83
2023-02-25T20:21:07.980Z,5.74
2023-02-25T20:23:35.108Z,5.65
2023-02-25T20:26:13.842Z,5.53
2023-02-25T20:28:41.377Z,5.41
2023-02-25T20:31:15.529Z,5.48
2023-02-25T20:33:43.977Z,5.50
2023-02-25T20:36:24.320Z,5.51
2023-02-25T20:39:18.550Z,5.51
2023-02-25T20:41:46.876Z,5.51
2023-02-25T20:44:14.689Z,5.56
2023-02-25T20:46:41.573Z,5.59
2023-02-25T20:49:12.829Z,5.60
2023-02-25T20:51:39.909Z,5.62
2023-02-25T20:54:06.940Z,5.64
2023-02-25T20:56:34.705Z,5.64
2023-02-25T20:59:01.609Z,5.63
2023-02-25T21:01:28.437Z,5.63
2023-02-25T21:03:55.696Z,5.64
2023-02-25T21:06:23.758Z,5.62
2023-02-25T21:08:51.775Z,5.61
2023-02-25T21:11:19.888Z,5.59
2023-02-25T21:13:47.623Z,5.59
2023-02-25T21:16:15.806Z,5.56
2023-02-25T21:18:43.592Z,5.54
2023-02-25T21:21:11.362Z,5.52
2023-02-25T21:23:38.056Z,5.49
2023-02-25T21:26:06.208Z,5.48
2023-02-25T21:28:32.946Z,5.46
2023-02-25T21:31:09.096Z,5.43
2023-02-25T21:33:36.849Z,5.41
2023-02-25T21:36:04.406Z,5.38
2023-02-25T21:38:31.234Z,5.36
2023-02-25T21:40:57.926Z,5.33
2023-02-25T21:43:24.711Z,5.29
2023-02-25T21:45:58.829Z,5.27
2023-02-25T21:48:27.390Z,5.24
2023-02-25T21:50:54.341Z,5.21
2023-02-25T21:53:21.909Z,5.17
2023-02-25T21:55:48.579Z,5.13
2023-02-25T21:58:15.721Z,5.12
2023-02-25T22:00:42.703Z,5.06
2023-02-25T22:03:12.309Z,5.04
2023-02-25T22:05:39.927Z,4.97
2023-02-25T22:08:06.763Z,4.96
2023-02-25T22:10:36.339Z,4.92
2023-02-25T22:13:03.169Z,4.91
2023-02-25T22:15:29.915Z,4.89
2023-02-25T22:17:56.609Z,4.87
2023-02-25T22:20:23.407Z,4.85
2023-02-25T22:22:50.174Z,4.82
2023-02-25T22:25:17.210Z,4.81
2023-02-25T22:27:43.860Z,4.78
2023-02-25T22:30:11.311Z,4.69
2023-02-25T22:32:38.150Z,4.65
2023-02-25T22:35:07.686Z,4.60
2023-02-25T22:37:34.489Z,4.59
2023-02-25T22:40:01.247Z,4.60
2023-02-25T22:42:27.909Z,4.61
2023-02-25T22:44:54.709Z,4.61
2023-02-25T22:47:21.479Z,4.61
2023-02-25T22:49:48.240Z,4.59
2023-02-25T22:52:14.937Z,4.56
2023-02-25T22:54:41.785Z,4.55
2023-02-25T22:57:08.473Z,4.55
2023-02-25T22:59:35.740Z,4.53
2023-02-25T23:02:02.777Z,4.49
2023-02-25T23:04:29.585Z,4.41
2023-02-25T23:06:57.234Z,4.40
2023-02-25T23:09:23.993Z,4.39
2023-02-25T23:11:50.725Z,4.37
2023-02-25T23:14:18.255Z,4.35
2023-02-25T23:16:46.021Z,4.34
2023-02-25T23:19:16.186Z,4.32
2023-02-25T23:21:43.374Z,4.28
2023-02-25T23:24:16.121Z,4.28
2023-02-25T23:26:43.972Z,4.26
2023-02-25T23:29:11.509Z,4.24
2023-02-25T23:31:42.623Z,4.23
2023-02-25T23:34:15.441Z,4.16
2023-02-25T23:36:43.688Z,4.11
2023-02-25T23:39:12.992Z,4.11
2023-02-25T23:41:39.895Z,4.10
2023-02-25T23:44:08.549Z,4.08
2023-02-25T23:46:36.295Z,4.07
2023-02-25T23:49:05.917Z,4.05
2023-02-25T23:51:33.785Z,4.03
2023-02-25T23:54:02.755Z,4.02
2023-02-25T23:56:30.922Z,4.02
2023-02-25T23:58:58.235Z,4.01
